createdAt,value
2018-11-25T00:02:12.047Z,61.90
2018-11-25T00:04:44.046Z,68.47
2018-11-25T00:07:16.063Z,61.80
2018-11-25T00:09:47.949Z,67.20
2018-11-25T00:12:20.757Z,67.97
2018-11-25T00:14:53.338Z,81.53
2018-11-25T00:17:25.498Z,74.77
2018-11-25T00:19:57.378Z,73.63
2018-11-25T00:22:29.708Z,80.47
2018-11-25T00:25:01.601Z,74.07
2018-11-25T00:27:34.247Z,74.57
2018-11-25T00:30:07.843Z,63.20
2018-11-25T00:32:40.195Z,97.07
2018-11-25T00:35:14.585Z,83.07
2018-11-25T00:37:48.267Z,75.07
2018-11-25T00:40:18.762Z,67.77
2018-11-25T00:42:50.792Z,60.50
2018-11-25T00:45:23.052Z,68.67
2018-11-25T00:47:55.219Z,70.63
2018-11-25T00:50:27.349Z,63.53
2018-11-25T00:52:59.245Z,65.00
2018-11-25T00:55:31.335Z,68.30
2018-11-25T00:58:03.680Z,64.63
2018-11-25T01:00:35.947Z,68.00
2018-11-25T01:03:08.467Z,61.37
2018-11-25T01:05:40.717Z,59.70
2018-11-25T01:08:12.793Z,60.17
2018-11-25T01:10:45.320Z,54.23
2018-11-25T01:13:17.390Z,57.80
2018-11-25T01:15:49.274Z,59.83
2018-11-25T01:18:21.382Z,61.03
2018-11-25T01:20:53.593Z,51.40
2018-11-25T01:23:26.668Z,63.77
2018-11-25T01:25:58.839Z,57.50
2018-11-25T01:28:31.409Z,58.03
2018-11-25T01:31:03.585Z,51.67
2018-11-25T01:33:36.058Z,53.07
2018-11-25T01:36:08.167Z,53.13
2018-11-25T01:38:40.498Z,50.97
2018-11-25T01:41:13.048Z,54.33
2018-11-25T01:43:45.283Z,53.93
2018-11-25T01:46:17.370Z,54.20
2018-11-25T01:48:49.437Z,57.47
2018-11-25T01:51:21.547Z,56.33
2018-11-25T01:53:53.520Z,56.80
2018-11-25T01:56:25.442Z,56.17
2018-11-25T01:58:57.518Z,52.33
2018-11-25T02:01:29.825Z,56.50
2018-11-25T02:04:16.481Z,53.67
2018-11-25T02:06:48.560Z,52.73
2018-11-25T02:09:20.869Z,52.80
2018-11-25T02:11:52.929Z,58.47
2018-11-25T02:14:24.845Z,59.93
2018-11-25T02:16:56.982Z,64.73
2018-11-25T02:19:29.012Z,54.20
2018-11-25T02:22:01.004Z,57.77
2018-11-25T02:24:32.802Z,49.93
2018-11-25T02:27:05.054Z,50.90
2018-11-25T02:29:37.245Z,53.70
2018-11-25T02:32:09.394Z,60.67
2018-11-25T02:34:41.829Z,54.50
2018-11-25T02:37:14.393Z,59.57
2018-11-25T02:39:46.781Z,63.60
2018-11-25T02:42:19.059Z,61.90
2018-11-25T02:44:51.353Z,56.37
2018-11-25T02:47:23.667Z,58.37
2018-11-25T02:49:55.968Z,54.80
2018-11-25T02:52:28.661Z,62.17
2018-11-25T02:55:01.291Z,76.77
2018-11-25T02:57:33.596Z,71.00
2018-11-25T03:00:05.882Z,63.80
2018-11-25T03:02:38.069Z,84.00
2018-11-25T03:05:10.109Z,84.57
2018-11-25T03:07:42.403Z,83.40
2018-11-25T03:10:14.425Z,70.33
2018-11-25T03:12:46.524Z,70.97
2018-11-25T03:15:19.805Z,62.20
2018-11-25T03:17:51.973Z,57.60
2018-11-25T03:20:24.020Z,50.87
2018-11-25T03:22:56.149Z,51.23
2018-11-25T03:25:28.587Z,58.57
2018-11-25T03:28:00.681Z,56.07
2018-11-25T03:30:32.682Z,60.00
2018-11-25T03:33:04.941Z,65.33
2018-11-25T03:35:36.992Z,59.27
2018-11-25T03:38:09.400Z,60.47
2018-11-25T03:40:41.407Z,55.83
2018-11-25T03:43:13.546Z,55.57
2018-11-25T03:45:45.917Z,56.90
2018-11-25T03:48:18.498Z,62.67
2018-11-25T03:50:51.088Z,60.57
2018-11-25T03:53:23.140Z,61.23
2018-11-25T03:55:55.567Z,52.77
2018-11-25T03:58:27.890Z,56.20
2018-11-25T04:01:00.342Z,55.87
2018-11-25T04:03:32.388Z,57.77
2018-11-25T04:06:04.280Z,69.13
2018-11-25T04:08:36.421Z,58.37
2018-11-25T04:11:09.677Z,55.43
2018-11-25T04:13:41.717Z,60.30
2018-11-25T04:16:14.033Z,75.87
2018-11-25T04:18:46.088Z,83.83
2018-11-25T04:21:18.200Z,63.43
2018-11-25T04:23:51.021Z,59.03
2018-11-25T04:26:22.991Z,62.60
2018-11-25T04:28:54.878Z,58.97
2018-11-25T04:31:26.930Z,57.03
2018-11-25T04:33:59.186Z,55.80
2018-11-25T04:36:31.296Z,59.50
2018-11-25T04:39:03.742Z,54.40
2018-11-25T04:41:35.960Z,50.60
2018-11-25T04:44:08.862Z,52.60
2018-11-25T04:46:40.886Z,69.83
2018-11-25T04:49:12.981Z,62.10
2018-11-25T04:51:45.074Z,61.10
2018-11-25T04:54:16.942Z,69.37
2018-11-25T04:56:48.812Z,59.20
2018-11-25T04:59:20.874Z,63.03
2018-11-25T05:01:53.355Z,73.47
2018-11-25T05:04:25.321Z,68.60
2018-11-25T05:06:57.281Z,73.53
2018-11-25T05:09:29.099Z,80.97
2018-11-25T05:12:01.446Z,87.43
2018-11-25T05:14:33.679Z,80.03
2018-11-25T05:17:05.508Z,83.07
2018-11-25T05:19:37.215Z,73.57
2018-11-25T05:22:09.297Z,81.57
2018-11-25T05:24:41.153Z,78.17
2018-11-25T05:27:13.421Z,72.57
2018-11-25T05:29:45.431Z,72.63
2018-11-25T05:32:17.307Z,75.63
2018-11-25T05:34:49.352Z,78.30
2018-11-25T05:37:21.194Z,73.40
2018-11-25T05:39:53.527Z,80.07
2018-11-25T05:42:26.486Z,86.93
2018-11-25T05:44:58.558Z,68.60
2018-11-25T05:47:30.777Z,89.80
2018-11-25T05:50:02.929Z,74.53
2018-11-25T05:52:35.798Z,108.93
2018-11-25T05:55:09.556Z,90.93
2018-11-25T05:57:41.557Z,74.00
2018-11-25T06:00:37.677Z,73.70
2018-11-25T06:03:10.338Z,120.47
2018-11-25T06:05:42.349Z,74.47
2018-11-25T06:08:14.370Z,78.23
2018-11-25T06:10:45.418Z,69.63
2018-11-25T06:13:16.777Z,77.53
2018-11-25T06:15:47.839Z,80.87
2018-11-25T06:18:18.895Z,92.27
2018-11-25T06:20:49.881Z,81.27
2018-11-25T06:23:21.022Z,80.40
2018-11-25T06:25:52.270Z,78.77
2018-11-25T06:28:23.182Z,73.30
2018-11-25T06:30:54.246Z,75.47
2018-11-25T06:33:25.343Z,69.17
2018-11-25T06:35:56.214Z,73.87
2018-11-25T06:38:35.925Z,68.07
2018-11-25T06:41:07.241Z,74.97
2018-11-25T06:43:38.221Z,75.83
2018-11-25T06:46:11.992Z,98.07
2018-11-25T06:48:43.125Z,83.33
2018-11-25T06:51:14.111Z,78.10
2018-11-25T06:53:45.032Z,83.97
2018-11-25T06:56:16.018Z,91.47
2018-11-25T06:58:47.210Z,91.20
2018-11-25T07:01:18.112Z,76.73
2018-11-25T07:03:49.129Z,69.97
2018-11-25T07:06:20.184Z,77.30
2018-11-25T07:08:51.285Z,77.27
2018-11-25T07:11:22.297Z,90.00
2018-11-25T07:13:53.402Z,82.77
2018-11-25T07:16:24.384Z,122.80
2018-11-25T07:18:55.467Z,145.30
2018-11-25T07:21:26.584Z,86.13
2018-11-25T07:23:57.864Z,98.40
2018-11-25T07:26:29.292Z,88.43
2018-11-25T07:29:00.468Z,82.43
2018-11-25T07:31:31.526Z,101.60
2018-11-25T07:34:02.733Z,99.63
2018-11-25T07:36:33.910Z,93.77
2018-11-25T07:39:06.498Z,85.30
2018-11-25T07:41:37.729Z,92.20
2018-11-25T07:44:09.723Z,112.37
2018-11-25T07:46:40.980Z,101.60
2018-11-25T07:49:12.249Z,107.10
2018-11-25T07:51:43.229Z,91.57
2018-11-25T07:54:14.367Z,94.17
2018-11-25T07:56:45.474Z,91.67
2018-11-25T07:59:16.534Z,95.60
2018-11-25T08:01:47.607Z,89.13
2018-11-25T08:04:18.916Z,84.73
2018-11-25T08:06:50.046Z,76.37
2018-11-25T08:09:21.329Z,92.97
2018-11-25T08:11:52.302Z,93.70
2018-11-25T08:14:23.191Z,91.93
2018-11-25T08:16:55.141Z,97.60
2018-11-25T08:19:26.321Z,99.17
2018-11-25T08:21:57.368Z,84.30
2018-11-25T08:24:28.717Z,103.40
2018-11-25T08:26:59.982Z,108.30
2018-11-25T08:29:31.464Z,102.87
2018-11-25T08:32:02.556Z,107.00
2018-11-25T08:34:33.645Z,93.57
2018-11-25T08:37:04.865Z,100.67
2018-11-25T08:39:35.727Z,97.13
2018-11-25T08:42:06.988Z,98.23
2018-11-25T08:44:38.014Z,100.90
2018-11-25T08:47:09.506Z,102.60
2018-11-25T08:49:40.303Z,103.57
2018-11-25T08:52:11.614Z,111.07
2018-11-25T08:54:42.671Z,133.93
2018-11-25T08:57:13.916Z,127.03
2018-11-25T08:59:45.446Z,140.07
2018-11-25T09:02:16.385Z,112.73
2018-11-25T09:04:47.467Z,131.50
2018-11-25T09:07:18.403Z,116.60
2018-11-25T09:09:49.456Z,122.93
2018-11-25T09:12:20.452Z,119.80
2018-11-25T09:14:51.592Z,128.03
2018-11-25T09:17:22.594Z,125.50
2018-11-25T09:19:53.461Z,115.47
2018-11-25T09:22:24.388Z,120.50
2018-11-25T09:24:55.408Z,127.50
2018-11-25T09:27:26.611Z,131.47
2018-11-25T09:29:57.760Z,120.53
2018-11-25T09:32:28.927Z,133.37
2018-11-25T09:35:00.177Z,98.77
2018-11-25T09:37:31.297Z,105.67
2018-11-25T09:40:02.490Z,120.07
2018-11-25T09:42:33.414Z,115.53
2018-11-25T09:45:04.646Z,113.03
2018-11-25T09:47:35.703Z,107.30
2018-11-25T09:50:09.637Z,113.77
2018-11-25T09:52:41.032Z,103.63
2018-11-25T09:55:16.549Z,103.30
2018-11-25T09:57:49.809Z,96.83
2018-11-25T10:00:29.601Z,104.13
2018-11-25T10:03:01.043Z,94.20
2018-11-25T10:05:32.080Z,92.77
2018-11-25T10:08:03.773Z,95.20
2018-11-25T10:10:34.976Z,93.53
2018-11-25T10:13:06.702Z,86.30
2018-11-25T10:15:38.107Z,97.60
2018-11-25T10:18:10.376Z,95.17
2018-11-25T10:20:41.862Z,95.93
2018-11-25T10:23:13.035Z,96.70
2018-11-25T10:25:45.128Z,92.20
2018-11-25T10:28:16.157Z,108.30
2018-11-25T10:30:47.603Z,93.27
2018-11-25T10:33:18.802Z,94.93
2018-11-25T10:35:50.394Z,94.07
2018-11-25T10:38:22.544Z,92.37
2018-11-25T10:40:53.812Z,90.80
2018-11-25T10:43:26.116Z,88.60
2018-11-25T10:45:59.562Z,87.57
2018-11-25T10:48:31.018Z,108.10
2018-11-25T10:51:02.300Z,88.70
2018-11-25T10:53:33.469Z,84.93
2018-11-25T10:56:04.929Z,78.73
2018-11-25T10:58:37.834Z,77.27
2018-11-25T11:01:13.974Z,84.83
2018-11-25T11:03:50.143Z,88.27
2018-11-25T11:07:30.335Z,76.13
2018-11-25T11:10:01.913Z,80.13
2018-11-25T11:12:33.469Z,82.70
2018-11-25T11:15:06.359Z,85.07
2018-11-25T11:17:37.617Z,82.07
2018-11-25T11:20:11.094Z,85.57
2018-11-25T11:22:42.272Z,80.33
2018-11-25T11:25:13.908Z,89.57
2018-11-25T11:27:45.452Z,76.03
2018-11-25T11:30:17.250Z,80.40
2018-11-25T11:32:50.608Z,72.07
2018-11-25T11:35:22.221Z,76.03
2018-11-25T11:37:53.729Z,80.43
2018-11-25T11:40:25.270Z,85.90
2018-11-25T11:42:56.591Z,85.33
2018-11-25T11:45:29.291Z,77.43
2018-11-25T11:48:00.941Z,77.63
2018-11-25T11:50:32.550Z,77.50
2018-11-25T11:53:03.871Z,76.20
2018-11-25T11:55:35.069Z,75.77
2018-11-25T11:58:06.522Z,108.33
2018-11-25T12:00:37.829Z,87.70
2018-11-25T12:03:09.194Z,83.37
2018-11-25T12:05:40.339Z,81.50
2018-11-25T12:08:11.875Z,75.37
2018-11-25T12:10:43.125Z,70.93
2018-11-25T12:13:14.460Z,82.63
2018-11-25T12:15:45.933Z,82.97
2018-11-25T12:18:17.322Z,56.40
2018-11-25T12:20:48.771Z,59.80
2018-11-25T12:23:20.341Z,60.43
2018-11-25T12:25:51.867Z,54.30
2018-11-25T12:28:23.233Z,40.10
2018-11-25T12:30:54.398Z,50.00
2018-11-25T12:33:25.821Z,59.90
2018-11-25T12:35:57.256Z,56.83
2018-11-25T12:38:28.453Z,55.93
2018-11-25T12:41:00.007Z,61.17
2018-11-25T12:43:31.267Z,55.93
2018-11-25T12:46:03.647Z,61.00
2018-11-25T12:48:44.450Z,57.60
2018-11-25T12:51:15.866Z,52.67
2018-11-25T12:53:47.109Z,58.50
2018-11-25T12:56:18.393Z,57.13
2018-11-25T12:58:49.864Z,60.20
2018-11-25T13:01:21.394Z,70.07
2018-11-25T13:03:53.025Z,59.47
2018-11-25T13:06:24.311Z,53.17
2018-11-25T13:08:55.683Z,65.47
2018-11-25T13:11:26.890Z,52.67
2018-11-25T13:13:58.032Z,111.43
2018-11-25T13:16:29.340Z,47.37
2018-11-25T13:19:01.463Z,41.17
2018-11-25T13:21:32.680Z,51.83
2018-11-25T13:24:04.189Z,43.63
2018-11-25T13:26:35.844Z,41.20
2018-11-25T13:29:08.148Z,36.50
2018-11-25T13:31:39.797Z,41.50
2018-11-25T13:34:10.823Z,45.63
2018-11-25T13:36:42.053Z,44.73
2018-11-25T13:39:13.579Z,39.93
2018-11-25T13:41:44.824Z,37.10
2018-11-25T13:44:17.255Z,34.87
2018-11-25T13:46:48.735Z,36.10
2018-11-25T13:49:20.050Z,39.50
2018-11-25T13:51:52.206Z,38.43
2018-11-25T13:54:23.717Z,37.77
2018-11-25T13:56:55.815Z,38.03
2018-11-25T13:59:27.548Z,35.43
2018-11-25T14:01:59.059Z,40.10
2018-11-25T14:04:30.536Z,39.77
2018-11-25T14:07:01.938Z,44.57
2018-11-25T14:09:33.933Z,41.33
2018-11-25T14:12:05.461Z,45.97
2018-11-25T14:14:36.777Z,35.23
2018-11-25T14:17:08.282Z,52.63
2018-11-25T14:19:39.579Z,54.67
2018-11-25T14:22:11.121Z,60.63
2018-11-25T14:24:42.332Z,53.33
2018-11-25T14:27:13.744Z,49.80
2018-11-25T14:29:45.218Z,44.60
2018-11-25T14:32:16.545Z,50.07
2018-11-25T14:34:48.002Z,52.43
2018-11-25T14:37:19.517Z,55.97
2018-11-25T14:39:50.923Z,63.93
2018-11-25T14:42:23.633Z,58.30
2018-11-25T14:44:54.934Z,65.73
2018-11-25T14:47:27.030Z,53.97
2018-11-25T14:49:59.184Z,55.27
2018-11-25T14:52:30.736Z,48.93
2018-11-25T14:55:02.396Z,60.60
2018-11-25T14:57:33.765Z,62.73
2018-11-25T15:00:13.776Z,63.10
2018-11-25T15:02:46.916Z,60.73
2018-11-25T15:05:40.853Z,57.53
2018-11-25T15:08:14.474Z,46.57
2018-11-25T15:10:46.053Z,50.37
2018-11-25T15:13:17.428Z,54.07
2018-11-25T15:15:48.652Z,79.20
2018-11-25T15:18:20.115Z,84.67
2018-11-25T15:20:51.598Z,131.77
2018-11-25T15:23:22.907Z,182.53
2018-11-25T15:25:56.543Z,154.23
2018-11-25T15:28:27.810Z,115.37
2018-11-25T15:30:59.077Z,99.10
2018-11-25T15:33:30.553Z,112.50
2018-11-25T15:36:02.172Z,116.87
2018-11-25T15:38:33.736Z,121.83
2018-11-25T15:41:05.694Z,117.13
2018-11-25T15:43:36.928Z,140.60
2018-11-25T15:46:09.788Z,121.13
2018-11-25T15:48:39.996Z,131.97
2018-11-25T15:51:11.433Z,128.73
2018-11-25T15:53:43.911Z,114.23
2018-11-25T15:56:15.306Z,116.33
2018-11-25T15:58:46.557Z,116.50
2018-11-25T16:01:17.887Z,103.33
2018-11-25T16:03:49.339Z,110.97
2018-11-25T16:06:38.970Z,101.30
2018-11-25T16:09:11.374Z,103.33
2018-11-25T16:11:42.559Z,111.00
2018-11-25T16:14:13.616Z,120.50
2018-11-25T16:16:46.879Z,112.53
2018-11-25T16:19:19.342Z,110.83
2018-11-25T16:21:50.700Z,111.50
2018-11-25T16:24:22.888Z,105.77
2018-11-25T16:26:54.288Z,110.53
2018-11-25T16:29:28.152Z,102.63
2018-11-25T16:31:59.371Z,95.53
2018-11-25T16:34:30.575Z,100.57
2018-11-25T16:37:03.452Z,102.40
2018-11-25T16:39:35.020Z,96.00
2018-11-25T16:42:06.726Z,102.93
2018-11-25T16:44:38.418Z,98.70
2018-11-25T16:47:10.309Z,133.53
2018-11-25T16:49:41.967Z,137.20
2018-11-25T16:52:14.100Z,130.50
2018-11-25T16:54:45.716Z,114.67
2018-11-25T16:57:17.683Z,112.70
2018-11-25T16:59:49.119Z,128.73
2018-11-25T17:02:20.465Z,306.60
2018-11-25T17:04:52.233Z,114.33
2018-11-25T17:07:23.745Z,136.73
2018-11-25T17:09:55.311Z,105.63
2018-11-25T17:12:27.978Z,102.20
2018-11-25T17:14:59.742Z,119.10
2018-11-25T17:17:32.629Z,114.40
2018-11-25T17:20:04.425Z,112.90
2018-11-25T17:22:35.764Z,119.57
2018-11-25T17:25:11.961Z,103.70
2018-11-25T17:27:42.791Z,118.20
2018-11-25T17:30:21.923Z,105.70
2018-11-25T17:32:53.398Z,106.90
2018-11-25T17:35:29.164Z,96.67
2018-11-25T17:38:00.867Z,95.83
2018-11-25T17:40:32.306Z,100.33
2018-11-25T17:43:03.992Z,104.43
2018-11-25T17:45:35.789Z,96.73
2018-11-25T17:48:07.852Z,116.77
2018-11-25T17:50:50.345Z,117.00
2018-11-25T17:53:21.895Z,124.97
2018-11-25T17:55:53.909Z,149.77
2018-11-25T17:58:27.450Z,115.33
2018-11-25T18:01:02.105Z,95.53
2018-11-25T18:03:36.102Z,104.83
2018-11-25T18:06:07.969Z,128.53
2018-11-25T18:08:40.387Z,115.13
2018-11-25T18:11:13.392Z,104.37
2018-11-25T18:13:45.885Z,122.73
2018-11-25T18:16:20.086Z,127.00
2018-11-25T18:19:00.101Z,157.40
2018-11-25T18:21:35.402Z,142.93
2018-11-25T18:24:07.763Z,115.87
2018-11-25T18:26:40.259Z,105.83
2018-11-25T18:29:12.859Z,125.10
2018-11-25T18:31:44.565Z,129.33
2018-11-25T18:34:17.092Z,145.20
2018-11-25T18:36:49.252Z,137.43
2018-11-25T18:39:21.178Z,166.47
2018-11-25T18:41:52.314Z,174.03
2018-11-25T18:44:23.647Z,171.70
2018-11-25T18:46:55.168Z,153.50
2018-11-25T18:49:26.418Z,149.23
2018-11-25T18:52:04.909Z,136.83
2018-11-25T18:54:30.082Z,128.97
2018-11-25T18:57:02.942Z,117.30
2018-11-25T18:59:34.590Z,140.23
2018-11-25T19:02:13.500Z,120.53
2018-11-25T19:04:44.957Z,112.90
2018-11-25T19:07:17.269Z,85.80
2018-11-25T19:09:48.503Z,73.23
2018-11-25T19:12:19.708Z,89.77
2018-11-25T19:14:51.053Z,85.87
2018-11-25T19:17:22.220Z,146.97
2018-11-25T19:19:53.534Z,130.50
2018-11-25T19:22:25.354Z,88.57
2018-11-25T19:24:56.893Z,123.00
2018-11-25T19:27:28.274Z,103.53
2018-11-25T19:29:59.453Z,86.37
2018-11-25T19:32:31.812Z,86.00
2018-11-25T19:35:04.051Z,94.17
2018-11-25T19:37:35.365Z,104.67
2018-11-25T19:40:11.045Z,103.47
2018-11-25T19:42:43.162Z,92.33
2018-11-25T19:45:35.734Z,81.33
2018-11-25T19:48:07.612Z,76.90
2018-11-25T19:50:40.429Z,76.73
2018-11-25T19:53:12.880Z,94.93
2018-11-25T19:55:44.888Z,91.23
2018-11-25T19:58:16.238Z,98.33
2018-11-25T20:00:47.746Z,95.13
2018-11-25T20:03:19.111Z,89.17
2018-11-25T20:05:58.151Z,97.33
2018-11-25T20:08:31.727Z,81.20
2018-11-25T20:11:03.271Z,108.63
2018-11-25T20:13:34.653Z,95.67
2018-11-25T20:16:37.464Z,74.47
2018-11-25T20:19:13.053Z,78.33
2018-11-25T20:22:47.713Z,134.83
2018-11-25T20:25:19.735Z,71.00
2018-11-25T20:27:52.500Z,66.23
2018-11-25T20:30:30.971Z,53.87
2018-11-25T20:33:07.193Z,53.47
2018-11-25T20:35:38.829Z,73.10
2018-11-25T20:38:14.800Z,47.70
2018-11-25T20:40:46.108Z,38.37
2018-11-25T20:43:17.531Z,36.37
2018-11-25T20:45:53.815Z,67.40
2018-11-25T20:48:25.221Z,50.47
2018-11-25T20:50:56.420Z,38.60
2018-11-25T20:53:32.588Z,40.40
2018-11-25T20:56:03.692Z,32.83
2018-11-25T20:58:35.042Z,30.30
2018-11-25T21:01:06.791Z,37.43
2018-11-25T21:03:38.000Z,43.37
2018-11-25T21:06:09.243Z,36.23
2018-11-25T21:08:40.585Z,42.17
2018-11-25T21:11:11.768Z,41.87
2018-11-25T21:13:43.285Z,39.83
2018-11-25T21:16:14.428Z,40.33
2018-11-25T21:18:45.449Z,37.60
2018-11-25T21:21:16.969Z,38.50
2018-11-25T21:23:48.066Z,42.50
2018-11-25T21:26:19.238Z,42.30
2018-11-25T21:28:50.397Z,37.83
2018-11-25T21:31:21.611Z,44.07
2018-11-25T21:33:52.939Z,41.13
2018-11-25T21:36:24.332Z,39.23
2018-11-25T21:38:55.346Z,37.47
2018-11-25T21:41:26.456Z,35.07
2018-11-25T21:43:57.546Z,41.27
2018-11-25T21:46:28.542Z,36.93
2018-11-25T21:48:59.768Z,39.20
2018-11-25T21:51:30.676Z,38.27
2018-11-25T21:54:01.808Z,39.67
2018-11-25T21:56:33.001Z,37.70
2018-11-25T21:59:04.097Z,37.93
2018-11-25T22:01:35.388Z,36.83
2018-11-25T22:04:06.801Z,36.00
2018-11-25T22:06:37.941Z,36.30
2018-11-25T22:09:11.401Z,37.60
2018-11-25T22:11:42.437Z,43.20
2018-11-25T22:14:15.237Z,42.37
2018-11-25T22:16:46.411Z,38.93
2018-11-25T22:19:17.426Z,49.93
2018-11-25T22:21:48.815Z,40.53
2018-11-25T22:24:19.963Z,45.40
2018-11-25T22:26:51.165Z,41.40
2018-11-25T22:29:22.196Z,40.93
2018-11-25T22:31:53.367Z,51.07
2018-11-25T22:34:24.359Z,52.43
2018-11-25T22:36:55.293Z,51.10
2018-11-25T22:39:26.411Z,49.13
2018-11-25T22:41:57.622Z,48.13
2018-11-25T22:44:28.469Z,48.57
2018-11-25T22:46:59.412Z,46.07
2018-11-25T22:49:30.318Z,45.10
2018-11-25T22:52:01.286Z,46.77
2018-11-25T22:54:32.153Z,45.17
2018-11-25T22:57:03.302Z,47.80
2018-11-25T22:59:34.236Z,54.53
2018-11-25T23:02:05.277Z,51.70
2018-11-25T23:04:52.787Z,48.47
2018-11-25T23:07:23.764Z,41.83
2018-11-25T23:09:54.817Z,46.70
2018-11-25T23:12:25.791Z,47.60
2018-11-25T23:14:56.698Z,45.10
2018-11-25T23:17:27.715Z,44.43
2018-11-25T23:19:58.656Z,47.40
2018-11-25T23:22:29.582Z,42.90
2018-11-25T23:25:00.589Z,43.03
2018-11-25T23:27:31.518Z,45.10
2018-11-25T23:30:02.507Z,44.83
2018-11-25T23:32:33.518Z,43.47
2018-11-25T23:35:04.802Z,45.47
2018-11-25T23:37:35.635Z,43.27
2018-11-25T23:40:07.918Z,47.10
2018-11-25T23:42:39.091Z,45.43
2018-11-25T23:45:13.334Z,44.77
2018-11-25T23:47:44.330Z,44.10
2018-11-25T23:50:16.128Z,44.70
2018-11-25T23:52:48.860Z,45.97
2018-11-25T23:55:19.634Z,47.60
2018-11-25T23:57:50.700Z,48.37
